sensor_id;sensor_type;location;lat;lon;timestamp;P1;durP1;ratioP1;P2;durP2;ratioP2
16516;SDS011;8371;52.272;9.746;2024-02-26T00:00:03;1.30;;;1.30;;
16516;SDS011;8371;52.272;9.746;2024-02-26T00:02:32;1.07;;;1.07;;
16516;SDS011;8371;52.272;9.746;2024-02-26T00:04:59;0.93;;;0.93;;
16516;SDS011;8371;52.272;9.746;2024-02-26T00:07:25;0.93;;;0.93;;
16516;SDS011;8371;52.272;9.746;2024-02-26T00:09:50;1.07;;;1.07;;
16516;SDS011;8371;52.272;9.746;2024-02-26T00:12:16;1.10;;;1.10;;
16516;SDS011;8371;52.272;9.746;2024-02-26T00:14:42;1.00;;;1.00;;
16516;SDS011;8371;52.272;9.746;2024-02-26T00:17:08;1.23;;;1.23;;
16516;SDS011;8371;52.272;9.746;2024-02-26T00:19:34;1.70;;;0.93;;
16516;SDS011;8371;52.272;9.746;2024-02-26T00:22:00;1.20;;;1.20;;
16516;SDS011;8371;52.272;9.746;2024-02-26T00:24:26;1.00;;;1.00;;
16516;SDS011;8371;52.272;9.746;2024-02-26T00:26:52;1.27;;;1.27;;
16516;SDS011;8371;52.272;9.746;2024-02-26T00:29:19;1.10;;;1.10;;
16516;SDS011;8371;52.272;9.746;2024-02-26T00:31:45;1.10;;;1.10;;
16516;SDS011;8371;52.272;9.746;2024-02-26T00:34:11;1.00;;;1.00;;
16516;SDS011;8371;52.272;9.746;2024-02-26T00:36:36;1.03;;;1.03;;
16516;SDS011;8371;52.272;9.746;2024-02-26T00:39:02;1.13;;;1.13;;
16516;SDS011;8371;52.272;9.746;2024-02-26T00:41:29;0.90;;;0.90;;
16516;SDS011;8371;52.272;9.746;2024-02-26T00:43:54;0.90;;;0.90;;
16516;SDS011;8371;52.272;9.746;2024-02-26T00:46:20;0.93;;;0.93;;
16516;SDS011;8371;52.272;9.746;2024-02-26T00:48:46;0.80;;;0.80;;
16516;SDS011;8371;52.272;9.746;2024-02-26T00:51:11;1.13;;;1.13;;
16516;SDS011;8371;52.272;9.746;2024-02-26T00:53:37;0.87;;;0.87;;
16516;SDS011;8371;52.272;9.746;2024-02-26T00:56:03;0.90;;;0.90;;
16516;SDS011;8371;52.272;9.746;2024-02-26T00:58:29;1.07;;;1.07;;
16516;SDS011;8371;52.272;9.746;2024-02-26T01:00:54;0.83;;;0.83;;
16516;SDS011;8371;52.272;9.746;2024-02-26T01:03:20;0.90;;;0.90;;
16516;SDS011;8371;52.272;9.746;2024-02-26T01:05:46;1.17;;;1.17;;
16516;SDS011;8371;52.272;9.746;2024-02-26T01:08:12;0.80;;;0.80;;
16516;SDS011;8371;52.272;9.746;2024-02-26T01:10:37;1.33;;;0.90;;
16516;SDS011;8371;52.272;9.746;2024-02-26T01:13:03;0.83;;;0.83;;
16516;SDS011;8371;52.272;9.746;2024-02-26T01:15:29;0.90;;;0.90;;
16516;SDS011;8371;52.272;9.746;2024-02-26T01:17:54;1.00;;;1.00;;
16516;SDS011;8371;52.272;9.746;2024-02-26T01:20:20;0.80;;;0.80;;
16516;SDS011;8371;52.272;9.746;2024-02-26T01:22:46;0.83;;;0.83;;
16516;SDS011;8371;52.272;9.746;2024-02-26T01:25:12;0.90;;;0.90;;
16516;SDS011;8371;52.272;9.746;2024-02-26T01:27:38;0.77;;;0.77;;
16516;SDS011;8371;52.272;9.746;2024-02-26T01:30:06;0.97;;;0.97;;
16516;SDS011;8371;52.272;9.746;2024-02-26T01:32:32;0.97;;;0.97;;
16516;SDS011;8371;52.272;9.746;2024-02-26T01:34:58;0.90;;;0.90;;
16516;SDS011;8371;52.272;9.746;2024-02-26T01:37:24;1.00;;;1.00;;
16516;SDS011;8371;52.272;9.746;2024-02-26T01:39:50;1.00;;;1.00;;
16516;SDS011;8371;52.272;9.746;2024-02-26T01:42:15;0.90;;;0.90;;
16516;SDS011;8371;52.272;9.746;2024-02-26T01:44:41;1.00;;;1.00;;
16516;SDS011;8371;52.272;9.746;2024-02-26T01:47:08;1.10;;;1.10;;
16516;SDS011;8371;52.272;9.746;2024-02-26T01:49:36;1.20;;;1.20;;
16516;SDS011;8371;52.272;9.746;2024-02-26T01:52:03;1.07;;;1.07;;
16516;SDS011;8371;52.272;9.746;2024-02-26T01:54:31;0.90;;;0.90;;
16516;SDS011;8371;52.272;9.746;2024-02-26T01:56:59;1.03;;;1.03;;
16516;SDS011;8371;52.272;9.746;2024-02-26T01:59:25;0.83;;;0.83;;
16516;SDS011;8371;52.272;9.746;2024-02-26T02:01:52;1.60;;;1.10;;
16516;SDS011;8371;52.272;9.746;2024-02-26T02:04:21;1.00;;;1.00;;
16516;SDS011;8371;52.272;9.746;2024-02-26T02:06:48;0.90;;;0.90;;
16516;SDS011;8371;52.272;9.746;2024-02-26T02:09:14;1.37;;;1.00;;
16516;SDS011;8371;52.272;9.746;2024-02-26T02:11:40;1.10;;;1.10;;
16516;SDS011;8371;52.272;9.746;2024-02-26T02:14:06;1.00;;;1.00;;
16516;SDS011;8371;52.272;9.746;2024-02-26T02:16:32;0.90;;;0.90;;
16516;SDS011;8371;52.272;9.746;2024-02-26T02:18:59;1.00;;;1.00;;
16516;SDS011;8371;52.272;9.746;2024-02-26T02:21:25;1.17;;;1.17;;
16516;SDS011;8371;52.272;9.746;2024-02-26T02:23:50;1.10;;;1.10;;
16516;SDS011;8371;52.272;9.746;2024-02-26T02:26:16;1.00;;;1.00;;
16516;SDS011;8371;52.272;9.746;2024-02-26T02:28:43;1.30;;;1.27;;
16516;SDS011;8371;52.272;9.746;2024-02-26T02:31:10;1.23;;;1.23;;
16516;SDS011;8371;52.272;9.746;2024-02-26T02:33:35;1.80;;;1.70;;
16516;SDS011;8371;52.272;9.746;2024-02-26T02:36:02;1.10;;;1.10;;
16516;SDS011;8371;52.272;9.746;2024-02-26T02:38:29;1.30;;;1.30;;
16516;SDS011;8371;52.272;9.746;2024-02-26T02:40:55;1.13;;;1.13;;
16516;SDS011;8371;52.272;9.746;2024-02-26T02:43:21;1.00;;;1.00;;
16516;SDS011;8371;52.272;9.746;2024-02-26T02:45:47;1.00;;;1.00;;
16516;SDS011;8371;52.272;9.746;2024-02-26T02:48:12;1.23;;;1.23;;
16516;SDS011;8371;52.272;9.746;2024-02-26T02:50:38;1.27;;;1.27;;
16516;SDS011;8371;52.272;9.746;2024-02-26T02:53:04;1.13;;;1.13;;
16516;SDS011;8371;52.272;9.746;2024-02-26T02:55:29;1.20;;;1.20;;
16516;SDS011;8371;52.272;9.746;2024-02-26T02:57:55;1.30;;;1.30;;
16516;SDS011;8371;52.272;9.746;2024-02-26T03:00:21;0.97;;;0.97;;
16516;SDS011;8371;52.272;9.746;2024-02-26T03:02:49;1.20;;;1.20;;
16516;SDS011;8371;52.272;9.746;2024-02-26T03:05:15;1.23;;;1.23;;
16516;SDS011;8371;52.272;9.746;2024-02-26T03:07:41;1.10;;;1.10;;
16516;SDS011;8371;52.272;9.746;2024-02-26T03:10:07;1.30;;;1.30;;
16516;SDS011;8371;52.272;9.746;2024-02-26T03:12:33;1.17;;;1.17;;
16516;SDS011;8371;52.272;9.746;2024-02-26T03:15:00;1.20;;;1.20;;
16516;SDS011;8371;52.272;9.746;2024-02-26T03:17:30;1.50;;;1.50;;
16516;SDS011;8371;52.272;9.746;2024-02-26T03:19:56;1.07;;;1.07;;
16516;SDS011;8371;52.272;9.746;2024-02-26T03:22:22;1.27;;;1.27;;
16516;SDS011;8371;52.272;9.746;2024-02-26T03:24:48;1.30;;;1.30;;
16516;SDS011;8371;52.272;9.746;2024-02-26T03:27:13;1.10;;;1.10;;
16516;SDS011;8371;52.272;9.746;2024-02-26T03:29:39;1.10;;;1.10;;
16516;SDS011;8371;52.272;9.746;2024-02-26T03:32:05;1.67;;;1.53;;
16516;SDS011;8371;52.272;9.746;2024-02-26T03:34:32;1.20;;;1.20;;
16516;SDS011;8371;52.272;9.746;2024-02-26T03:37:00;1.30;;;1.30;;
16516;SDS011;8371;52.272;9.746;2024-02-26T03:39:26;1.37;;;1.37;;
16516;SDS011;8371;52.272;9.746;2024-02-26T03:41:52;1.40;;;1.40;;
16516;SDS011;8371;52.272;9.746;2024-02-26T03:44:18;1.50;;;1.50;;
16516;SDS011;8371;52.272;9.746;2024-02-26T03:46:43;1.50;;;1.50;;
16516;SDS011;8371;52.272;9.746;2024-02-26T03:49:09;1.10;;;1.10;;
16516;SDS011;8371;52.272;9.746;2024-02-26T03:51:35;1.27;;;1.27;;
16516;SDS011;8371;52.272;9.746;2024-02-26T03:54:01;1.20;;;1.20;;
16516;SDS011;8371;52.272;9.746;2024-02-26T03:56:27;1.40;;;1.40;;
16516;SDS011;8371;52.272;9.746;2024-02-26T03:58:53;1.43;;;1.43;;
16516;SDS011;8371;52.272;9.746;2024-02-26T04:01:19;1.43;;;1.43;;
16516;SDS011;8371;52.272;9.746;2024-02-26T04:03:45;1.80;;;1.70;;
16516;SDS011;8371;52.272;9.746;2024-02-26T04:06:11;1.70;;;1.70;;
16516;SDS011;8371;52.272;9.746;2024-02-26T04:08:39;1.40;;;1.40;;
16516;SDS011;8371;52.272;9.746;2024-02-26T04:11:06;1.57;;;1.57;;
16516;SDS011;8371;52.272;9.746;2024-02-26T04:13:33;1.47;;;1.47;;
16516;SDS011;8371;52.272;9.746;2024-02-26T04:15:59;1.40;;;1.40;;
16516;SDS011;8371;52.272;9.746;2024-02-26T04:18:27;1.50;;;1.50;;
16516;SDS011;8371;52.272;9.746;2024-02-26T04:20:53;2.10;;;1.30;;
16516;SDS011;8371;52.272;9.746;2024-02-26T04:23:19;1.50;;;1.50;;
16516;SDS011;8371;52.272;9.746;2024-02-26T04:25:45;1.30;;;1.30;;
16516;SDS011;8371;52.272;9.746;2024-02-26T04:28:12;1.40;;;1.40;;
16516;SDS011;8371;52.272;9.746;2024-02-26T04:30:37;1.30;;;1.30;;
16516;SDS011;8371;52.272;9.746;2024-02-26T04:33:03;1.40;;;1.40;;
16516;SDS011;8371;52.272;9.746;2024-02-26T04:35:29;1.30;;;1.30;;
16516;SDS011;8371;52.272;9.746;2024-02-26T04:37:55;1.30;;;1.30;;
16516;SDS011;8371;52.272;9.746;2024-02-26T04:40:20;1.30;;;1.30;;
16516;SDS011;8371;52.272;9.746;2024-02-26T04:42:46;1.00;;;1.00;;
16516;SDS011;8371;52.272;9.746;2024-02-26T04:45:12;1.40;;;1.30;;
16516;SDS011;8371;52.272;9.746;2024-02-26T04:47:37;1.37;;;1.37;;
16516;SDS011;8371;52.272;9.746;2024-02-26T04:50:03;1.20;;;1.20;;
16516;SDS011;8371;52.272;9.746;2024-02-26T04:52:29;1.13;;;1.13;;
16516;SDS011;8371;52.272;9.746;2024-02-26T04:54:55;1.60;;;1.60;;
16516;SDS011;8371;52.272;9.746;2024-02-26T04:57:21;1.33;;;1.33;;
16516;SDS011;8371;52.272;9.746;2024-02-26T04:59:47;1.27;;;1.27;;
16516;SDS011;8371;52.272;9.746;2024-02-26T05:02:13;1.40;;;1.40;;
16516;SDS011;8371;52.272;9.746;2024-02-26T05:04:39;1.40;;;1.40;;
16516;SDS011;8371;52.272;9.746;2024-02-26T05:07:05;1.53;;;1.43;;
16516;SDS011;8371;52.272;9.746;2024-02-26T05:09:31;1.70;;;1.70;;
16516;SDS011;8371;52.272;9.746;2024-02-26T05:11:57;1.23;;;1.23;;
16516;SDS011;8371;52.272;9.746;2024-02-26T05:14:23;1.40;;;1.40;;
16516;SDS011;8371;52.272;9.746;2024-02-26T05:16:48;1.10;;;1.10;;
16516;SDS011;8371;52.272;9.746;2024-02-26T05:19:14;1.43;;;1.43;;
16516;SDS011;8371;52.272;9.746;2024-02-26T05:21:40;1.47;;;1.47;;
16516;SDS011;8371;52.272;9.746;2024-02-26T05:24:06;1.43;;;1.43;;
16516;SDS011;8371;52.272;9.746;2024-02-26T05:26:32;1.60;;;1.60;;
16516;SDS011;8371;52.272;9.746;2024-02-26T05:28:57;1.53;;;1.53;;
16516;SDS011;8371;52.272;9.746;2024-02-26T05:31:25;1.40;;;1.40;;
16516;SDS011;8371;52.272;9.746;2024-02-26T05:33:51;1.60;;;1.60;;
16516;SDS011;8371;52.272;9.746;2024-02-26T05:36:17;1.80;;;1.80;;
16516;SDS011;8371;52.272;9.746;2024-02-26T05:38:47;1.47;;;1.47;;
16516;SDS011;8371;52.272;9.746;2024-02-26T05:41:15;2.23;;;1.50;;
16516;SDS011;8371;52.272;9.746;2024-02-26T05:43:41;1.40;;;1.40;;
16516;SDS011;8371;52.272;9.746;2024-02-26T05:46:07;1.70;;;1.60;;
16516;SDS011;8371;52.272;9.746;2024-02-26T05:48:32;1.43;;;1.43;;
16516;SDS011;8371;52.272;9.746;2024-02-26T05:50:58;1.37;;;1.37;;
16516;SDS011;8371;52.272;9.746;2024-02-26T05:53:24;1.83;;;1.73;;
16516;SDS011;8371;52.272;9.746;2024-02-26T05:55:49;1.23;;;1.23;;
16516;SDS011;8371;52.272;9.746;2024-02-26T05:58:15;1.47;;;1.47;;
16516;SDS011;8371;52.272;9.746;2024-02-26T06:00:41;1.40;;;1.40;;
16516;SDS011;8371;52.272;9.746;2024-02-26T06:03:06;1.27;;;1.27;;
16516;SDS011;8371;52.272;9.746;2024-02-26T06:05:32;1.30;;;1.30;;
16516;SDS011;8371;52.272;9.746;2024-02-26T06:07:58;1.57;;;1.57;;
16516;SDS011;8371;52.272;9.746;2024-02-26T06:10:23;1.50;;;1.50;;
16516;SDS011;8371;52.272;9.746;2024-02-26T06:12:49;1.40;;;1.40;;
16516;SDS011;8371;52.272;9.746;2024-02-26T06:15:15;1.50;;;1.50;;
16516;SDS011;8371;52.272;9.746;2024-02-26T06:17:40;1.20;;;1.20;;
16516;SDS011;8371;52.272;9.746;2024-02-26T06:20:06;1.33;;;1.33;;
16516;SDS011;8371;52.272;9.746;2024-02-26T06:22:34;1.47;;;1.47;;
16516;SDS011;8371;52.272;9.746;2024-02-26T06:25:00;1.67;;;1.57;;
16516;SDS011;8371;52.272;9.746;2024-02-26T06:27:26;1.50;;;1.50;;
16516;SDS011;8371;52.272;9.746;2024-02-26T06:29:51;1.47;;;1.47;;
16516;SDS011;8371;52.272;9.746;2024-02-26T06:32:17;1.40;;;1.40;;
16516;SDS011;8371;52.272;9.746;2024-02-26T06:34:43;1.20;;;1.20;;
16516;SDS011;8371;52.272;9.746;2024-02-26T06:37:08;1.30;;;1.30;;
16516;SDS011;8371;52.272;9.746;2024-02-26T06:39:34;1.20;;;1.20;;
16516;SDS011;8371;52.272;9.746;2024-02-26T06:42:00;1.13;;;1.13;;
16516;SDS011;8371;52.272;9.746;2024-02-26T06:44:29;1.23;;;1.23;;
16516;SDS011;8371;52.272;9.746;2024-02-26T06:47:01;1.30;;;1.30;;
16516;SDS011;8371;52.272;9.746;2024-02-26T06:49:25;1.23;;;1.23;;
16516;SDS011;8371;52.272;9.746;2024-02-26T06:51:51;1.07;;;1.07;;
16516;SDS011;8371;52.272;9.746;2024-02-26T06:54:17;1.40;;;1.40;;
16516;SDS011;8371;52.272;9.746;2024-02-26T06:56:43;1.57;;;1.47;;
16516;SDS011;8371;52.272;9.746;2024-02-26T06:59:09;1.27;;;1.27;;
16516;SDS011;8371;52.272;9.746;2024-02-26T07:01:34;1.43;;;1.43;;
16516;SDS011;8371;52.272;9.746;2024-02-26T07:04:00;1.20;;;1.20;;
16516;SDS011;8371;52.272;9.746;2024-02-26T07:06:26;1.37;;;1.37;;
16516;SDS011;8371;52.272;9.746;2024-02-26T07:08:52;2.70;;;1.43;;
16516;SDS011;8371;52.272;9.746;2024-02-26T07:11:18;3.33;;;1.30;;
16516;SDS011;8371;52.272;9.746;2024-02-26T07:13:48;1.20;;;1.20;;
16516;SDS011;8371;52.272;9.746;2024-02-26T07:16:15;1.00;;;1.00;;
16516;SDS011;8371;52.272;9.746;2024-02-26T07:18:41;1.23;;;1.23;;
16516;SDS011;8371;52.272;9.746;2024-02-26T07:21:08;1.37;;;1.37;;
16516;SDS011;8371;52.272;9.746;2024-02-26T07:23:34;1.03;;;1.03;;
16516;SDS011;8371;52.272;9.746;2024-02-26T07:26:00;1.37;;;1.17;;
16516;SDS011;8371;52.272;9.746;2024-02-26T07:28:26;1.87;;;1.57;;
16516;SDS011;8371;52.272;9.746;2024-02-26T07:30:51;1.43;;;1.43;;
16516;SDS011;8371;52.272;9.746;2024-02-26T07:33:17;1.30;;;1.30;;
16516;SDS011;8371;52.272;9.746;2024-02-26T07:35:43;1.37;;;1.37;;
16516;SDS011;8371;52.272;9.746;2024-02-26T07:38:09;1.50;;;1.50;;
16516;SDS011;8371;52.272;9.746;2024-02-26T07:40:34;1.50;;;1.50;;
16516;SDS011;8371;52.272;9.746;2024-02-26T07:43:00;1.37;;;1.37;;
16516;SDS011;8371;52.272;9.746;2024-02-26T07:45:26;1.50;;;1.50;;
16516;SDS011;8371;52.272;9.746;2024-02-26T07:47:51;1.30;;;1.30;;
16516;SDS011;8371;52.272;9.746;2024-02-26T07:50:17;1.30;;;1.30;;
16516;SDS011;8371;52.272;9.746;2024-02-26T07:52:45;1.90;;;1.50;;
16516;SDS011;8371;52.272;9.746;2024-02-26T07:55:11;1.60;;;1.60;;
16516;SDS011;8371;52.272;9.746;2024-02-26T07:57:36;1.20;;;1.20;;
16516;SDS011;8371;52.272;9.746;2024-02-26T08:00:03;1.20;;;1.20;;
16516;SDS011;8371;52.272;9.746;2024-02-26T08:02:29;1.43;;;1.43;;
16516;SDS011;8371;52.272;9.746;2024-02-26T08:04:55;1.30;;;1.30;;
16516;SDS011;8371;52.272;9.746;2024-02-26T08:07:20;1.27;;;1.20;;
16516;SDS011;8371;52.272;9.746;2024-02-26T08:09:46;1.97;;;1.87;;
16516;SDS011;8371;52.272;9.746;2024-02-26T08:12:12;1.30;;;1.20;;
16516;SDS011;8371;52.272;9.746;2024-02-26T08:14:38;1.13;;;1.13;;
16516;SDS011;8371;52.272;9.746;2024-02-26T08:17:04;1.50;;;1.50;;
16516;SDS011;8371;52.272;9.746;2024-02-26T08:19:29;2.70;;;2.60;;
16516;SDS011;8371;52.272;9.746;2024-02-26T08:21:55;2.80;;;2.70;;
16516;SDS011;8371;52.272;9.746;2024-02-26T08:24:22;2.53;;;2.43;;
16516;SDS011;8371;52.272;9.746;2024-02-26T08:26:48;2.20;;;2.10;;
16516;SDS011;8371;52.272;9.746;2024-02-26T08:29:14;2.00;;;1.90;;
16516;SDS011;8371;52.272;9.746;2024-02-26T08:31:40;2.00;;;1.90;;
16516;SDS011;8371;52.272;9.746;2024-02-26T08:34:06;2.27;;;2.20;;
16516;SDS011;8371;52.272;9.746;2024-02-26T08:36:33;2.13;;;2.07;;
16516;SDS011;8371;52.272;9.746;2024-02-26T08:38:59;1.83;;;1.83;;
16516;SDS011;8371;52.272;9.746;2024-02-26T08:41:25;1.60;;;1.60;;
16516;SDS011;8371;52.272;9.746;2024-02-26T08:43:51;1.90;;;1.90;;
16516;SDS011;8371;52.272;9.746;2024-02-26T08:46:17;2.17;;;2.07;;
16516;SDS011;8371;52.272;9.746;2024-02-26T08:48:42;2.30;;;2.20;;
16516;SDS011;8371;52.272;9.746;2024-02-26T08:51:08;1.90;;;1.90;;
16516;SDS011;8371;52.272;9.746;2024-02-26T08:53:35;2.20;;;2.10;;
16516;SDS011;8371;52.272;9.746;2024-02-26T08:56:01;1.90;;;1.90;;
16516;SDS011;8371;52.272;9.746;2024-02-26T08:58:27;1.87;;;1.87;;
16516;SDS011;8371;52.272;9.746;2024-02-26T09:00:54;2.43;;;2.33;;
16516;SDS011;8371;52.272;9.746;2024-02-26T09:03:20;1.90;;;1.90;;
16516;SDS011;8371;52.272;9.746;2024-02-26T09:05:45;2.10;;;2.10;;
16516;SDS011;8371;52.272;9.746;2024-02-26T09:08:11;2.00;;;2.00;;
16516;SDS011;8371;52.272;9.746;2024-02-26T09:10:37;1.93;;;1.90;;
16516;SDS011;8371;52.272;9.746;2024-02-26T09:13:04;2.00;;;2.00;;
16516;SDS011;8371;52.272;9.746;2024-02-26T09:15:30;2.37;;;2.27;;
16516;SDS011;8371;52.272;9.746;2024-02-26T09:17:55;2.13;;;2.07;;
16516;SDS011;8371;52.272;9.746;2024-02-26T09:20:21;2.40;;;2.30;;
16516;SDS011;8371;52.272;9.746;2024-02-26T09:22:49;2.40;;;2.30;;
16516;SDS011;8371;52.272;9.746;2024-02-26T09:25:16;2.23;;;2.13;;
16516;SDS011;8371;52.272;9.746;2024-02-26T09:27:42;2.10;;;2.00;;
16516;SDS011;8371;52.272;9.746;2024-02-26T09:30:09;2.17;;;2.10;;
16516;SDS011;8371;52.272;9.746;2024-02-26T09:32:36;2.10;;;2.00;;
16516;SDS011;8371;52.272;9.746;2024-02-26T09:35:02;1.90;;;1.90;;
16516;SDS011;8371;52.272;9.746;2024-02-26T09:37:27;1.63;;;1.63;;
16516;SDS011;8371;52.272;9.746;2024-02-26T09:39:53;1.97;;;1.93;;
16516;SDS011;8371;52.272;9.746;2024-02-26T09:42:19;1.53;;;1.53;;
16516;SDS011;8371;52.272;9.746;2024-02-26T09:44:45;2.40;;;2.30;;
16516;SDS011;8371;52.272;9.746;2024-02-26T09:47:11;1.87;;;1.87;;
16516;SDS011;8371;52.272;9.746;2024-02-26T09:49:40;1.80;;;1.80;;
16516;SDS011;8371;52.272;9.746;2024-02-26T09:52:08;1.60;;;1.60;;
16516;SDS011;8371;52.272;9.746;2024-02-26T09:54:35;1.47;;;1.47;;
16516;SDS011;8371;52.272;9.746;2024-02-26T09:57:02;1.77;;;1.77;;
16516;SDS011;8371;52.272;9.746;2024-02-26T09:59:42;1.83;;;1.70;;
16516;SDS011;8371;52.272;9.746;2024-02-26T10:02:09;1.63;;;1.63;;
16516;SDS011;8371;52.272;9.746;2024-02-26T10:04:36;1.40;;;1.40;;
16516;SDS011;8371;52.272;9.746;2024-02-26T10:07:03;1.20;;;1.20;;
16516;SDS011;8371;52.272;9.746;2024-02-26T10:09:30;1.30;;;1.30;;
16516;SDS011;8371;52.272;9.746;2024-02-26T10:11:57;1.20;;;1.20;;
16516;SDS011;8371;52.272;9.746;2024-02-26T10:14:22;1.10;;;1.10;;
16516;SDS011;8371;52.272;9.746;2024-02-26T10:16:49;1.33;;;1.33;;
16516;SDS011;8371;52.272;9.746;2024-02-26T10:19:26;4.23;;;1.50;;
16516;SDS011;8371;52.272;9.746;2024-02-26T10:21:58;1.20;;;1.20;;
16516;SDS011;8371;52.272;9.746;2024-02-26T10:24:26;1.20;;;1.20;;
16516;SDS011;8371;52.272;9.746;2024-02-26T10:26:53;1.30;;;1.30;;
16516;SDS011;8371;52.272;9.746;2024-02-26T10:29:21;1.30;;;1.30;;
16516;SDS011;8371;52.272;9.746;2024-02-26T10:31:47;1.90;;;1.40;;
16516;SDS011;8371;52.272;9.746;2024-02-26T10:34:14;1.50;;;1.50;;
16516;SDS011;8371;52.272;9.746;2024-02-26T10:36:40;0.90;;;0.90;;
16516;SDS011;8371;52.272;9.746;2024-02-26T10:39:07;1.13;;;1.13;;
16516;SDS011;8371;52.272;9.746;2024-02-26T10:41:33;1.30;;;1.30;;
16516;SDS011;8371;52.272;9.746;2024-02-26T10:43:59;1.70;;;1.20;;
16516;SDS011;8371;52.272;9.746;2024-02-26T10:46:25;1.40;;;1.40;;
16516;SDS011;8371;52.272;9.746;2024-02-26T10:48:52;1.20;;;1.20;;
16516;SDS011;8371;52.272;9.746;2024-02-26T10:53:49;1.20;;;1.20;;
16516;SDS011;8371;52.272;9.746;2024-02-26T10:56:18;1.00;;;1.00;;
16516;SDS011;8371;52.272;9.746;2024-02-26T10:58:46;1.50;;;1.50;;
16516;SDS011;8371;52.272;9.746;2024-02-26T11:01:12;1.20;;;1.20;;
16516;SDS011;8371;52.272;9.746;2024-02-26T11:03:38;1.33;;;1.33;;
16516;SDS011;8371;52.272;9.746;2024-02-26T11:06:04;1.30;;;1.30;;
16516;SDS011;8371;52.272;9.746;2024-02-26T11:08:30;1.20;;;1.20;;
16516;SDS011;8371;52.272;9.746;2024-02-26T11:10:57;1.40;;;1.40;;
16516;SDS011;8371;52.272;9.746;2024-02-26T11:13:25;1.47;;;1.47;;
16516;SDS011;8371;52.272;9.746;2024-02-26T11:15:52;1.37;;;1.37;;
16516;SDS011;8371;52.272;9.746;2024-02-26T11:18:20;1.57;;;1.57;;
16516;SDS011;8371;52.272;9.746;2024-02-26T11:20:48;1.53;;;1.43;;
16516;SDS011;8371;52.272;9.746;2024-02-26T11:23:15;1.40;;;1.30;;
16516;SDS011;8371;52.272;9.746;2024-02-26T11:25:41;1.07;;;1.07;;
16516;SDS011;8371;52.272;9.746;2024-02-26T11:28:10;1.30;;;1.30;;
16516;SDS011;8371;52.272;9.746;2024-02-26T11:30:38;1.30;;;1.30;;
16516;SDS011;8371;52.272;9.746;2024-02-26T11:33:09;1.50;;;1.50;;
16516;SDS011;8371;52.272;9.746;2024-02-26T11:35:38;1.70;;;1.60;;
16516;SDS011;8371;52.272;9.746;2024-02-26T11:38:04;1.70;;;1.60;;
16516;SDS011;8371;52.272;9.746;2024-02-26T11:40:33;1.47;;;1.47;;
16516;SDS011;8371;52.272;9.746;2024-02-26T11:43:01;1.43;;;1.43;;
16516;SDS011;8371;52.272;9.746;2024-02-26T11:48:12;1.70;;;1.70;;
16516;SDS011;8371;52.272;9.746;2024-02-26T11:50:47;1.30;;;1.30;;
16516;SDS011;8371;52.272;9.746;2024-02-26T11:53:26;1.53;;;1.43;;
16516;SDS011;8371;52.272;9.746;2024-02-26T11:58:39;1.73;;;1.70;;
16516;SDS011;8371;52.272;9.746;2024-02-26T12:01:06;1.50;;;1.50;;
16516;SDS011;8371;52.272;9.746;2024-02-26T12:03:33;1.70;;;1.70;;
16516;SDS011;8371;52.272;9.746;2024-02-26T12:05:59;1.50;;;1.50;;
16516;SDS011;8371;52.272;9.746;2024-02-26T12:08:25;1.43;;;1.43;;
16516;SDS011;8371;52.272;9.746;2024-02-26T12:10:51;1.63;;;1.63;;
16516;SDS011;8371;52.272;9.746;2024-02-26T12:13:21;1.30;;;1.30;;
16516;SDS011;8371;52.272;9.746;2024-02-26T12:18:22;1.63;;;1.53;;
16516;SDS011;8371;52.272;9.746;2024-02-26T12:21:01;1.93;;;1.83;;
16516;SDS011;8371;52.272;9.746;2024-02-26T12:23:28;1.73;;;1.63;;
16516;SDS011;8371;52.272;9.746;2024-02-26T12:25:58;1.60;;;1.60;;
16516;SDS011;8371;52.272;9.746;2024-02-26T12:28:31;2.23;;;1.80;;
16516;SDS011;8371;52.272;9.746;2024-02-26T12:30:57;2.63;;;2.53;;
16516;SDS011;8371;52.272;9.746;2024-02-26T12:33:25;1.83;;;1.77;;
16516;SDS011;8371;52.272;9.746;2024-02-26T12:35:52;2.13;;;2.03;;
16516;SDS011;8371;52.272;9.746;2024-02-26T12:38:18;1.70;;;1.70;;
16516;SDS011;8371;52.272;9.746;2024-02-26T12:40:44;1.90;;;1.90;;
16516;SDS011;8371;52.272;9.746;2024-02-26T12:43:10;1.80;;;1.80;;
16516;SDS011;8371;52.272;9.746;2024-02-26T12:45:40;2.20;;;2.10;;
16516;SDS011;8371;52.272;9.746;2024-02-26T12:48:06;2.10;;;2.00;;
16516;SDS011;8371;52.272;9.746;2024-02-26T12:50:32;2.00;;;2.00;;
16516;SDS011;8371;52.272;9.746;2024-02-26T12:52:59;2.17;;;2.07;;
16516;SDS011;8371;52.272;9.746;2024-02-26T12:55:24;1.60;;;1.60;;
16516;SDS011;8371;52.272;9.746;2024-02-26T12:57:51;1.83;;;1.73;;
16516;SDS011;8371;52.272;9.746;2024-02-26T13:00:18;1.90;;;1.90;;
16516;SDS011;8371;52.272;9.746;2024-02-26T13:02:50;2.10;;;2.00;;
16516;SDS011;8371;52.272;9.746;2024-02-26T13:05:16;1.73;;;1.63;;
16516;SDS011;8371;52.272;9.746;2024-02-26T13:07:44;1.67;;;1.63;;
16516;SDS011;8371;52.272;9.746;2024-02-26T13:10:12;1.43;;;1.43;;
16516;SDS011;8371;52.272;9.746;2024-02-26T13:12:45;1.80;;;1.70;;
16516;SDS011;8371;52.272;9.746;2024-02-26T13:15:16;1.30;;;1.30;;
16516;SDS011;8371;52.272;9.746;2024-02-26T13:17:44;2.60;;;2.50;;
16516;SDS011;8371;52.272;9.746;2024-02-26T13:20:10;1.73;;;1.73;;
16516;SDS011;8371;52.272;9.746;2024-02-26T13:22:36;1.80;;;1.80;;
16516;SDS011;8371;52.272;9.746;2024-02-26T13:25:03;1.80;;;1.70;;
16516;SDS011;8371;52.272;9.746;2024-02-26T13:27:29;2.03;;;2.00;;
16516;SDS011;8371;52.272;9.746;2024-02-26T13:30:02;1.83;;;1.83;;
16516;SDS011;8371;52.272;9.746;2024-02-26T13:32:34;1.57;;;1.57;;
16516;SDS011;8371;52.272;9.746;2024-02-26T13:35:10;1.60;;;1.60;;
16516;SDS011;8371;52.272;9.746;2024-02-26T13:37:36;1.77;;;1.67;;
16516;SDS011;8371;52.272;9.746;2024-02-26T13:40:20;1.93;;;1.83;;
16516;SDS011;8371;52.272;9.746;2024-02-26T13:42:40;1.40;;;1.40;;
16516;SDS011;8371;52.272;9.746;2024-02-26T13:45:04;1.67;;;1.67;;
16516;SDS011;8371;52.272;9.746;2024-02-26T13:47:37;2.57;;;1.80;;
16516;SDS011;8371;52.272;9.746;2024-02-26T13:50:03;1.77;;;1.77;;
16516;SDS011;8371;52.272;9.746;2024-02-26T13:52:29;2.10;;;1.90;;
16516;SDS011;8371;52.272;9.746;2024-02-26T13:54:56;1.70;;;1.70;;
16516;SDS011;8371;52.272;9.746;2024-02-26T13:57:22;1.60;;;1.50;;
16516;SDS011;8371;52.272;9.746;2024-02-26T13:59:48;1.83;;;1.70;;
16516;SDS011;8371;52.272;9.746;2024-02-26T14:02:14;1.67;;;1.67;;
16516;SDS011;8371;52.272;9.746;2024-02-26T14:04:40;1.73;;;1.73;;
16516;SDS011;8371;52.272;9.746;2024-02-26T14:07:06;1.77;;;1.77;;
16516;SDS011;8371;52.272;9.746;2024-02-26T14:09:33;1.50;;;1.50;;
16516;SDS011;8371;52.272;9.746;2024-02-26T14:11:59;2.00;;;1.90;;
16516;SDS011;8371;52.272;9.746;2024-02-26T14:14:27;1.93;;;1.90;;
16516;SDS011;8371;52.272;9.746;2024-02-26T14:16:53;1.77;;;1.77;;
16516;SDS011;8371;52.272;9.746;2024-02-26T14:19:19;1.80;;;1.70;;
16516;SDS011;8371;52.272;9.746;2024-02-26T14:21:44;1.60;;;1.60;;
16516;SDS011;8371;52.272;9.746;2024-02-26T14:24:10;1.70;;;1.70;;
16516;SDS011;8371;52.272;9.746;2024-02-26T14:26:36;1.93;;;1.70;;
16516;SDS011;8371;52.272;9.746;2024-02-26T14:29:01;2.03;;;1.70;;
16516;SDS011;8371;52.272;9.746;2024-02-26T14:31:27;1.70;;;1.70;;
16516;SDS011;8371;52.272;9.746;2024-02-26T14:33:53;1.50;;;1.40;;
16516;SDS011;8371;52.272;9.746;2024-02-26T14:36:20;1.80;;;1.70;;
16516;SDS011;8371;52.272;9.746;2024-02-26T14:38:46;1.40;;;1.40;;
16516;SDS011;8371;52.272;9.746;2024-02-26T14:41:13;3.47;;;1.50;;
16516;SDS011;8371;52.272;9.746;2024-02-26T14:43:38;1.47;;;1.47;;
16516;SDS011;8371;52.272;9.746;2024-02-26T14:46:04;1.50;;;1.50;;
16516;SDS011;8371;52.272;9.746;2024-02-26T14:48:30;1.50;;;1.50;;
16516;SDS011;8371;52.272;9.746;2024-02-26T14:50:57;1.50;;;1.50;;
16516;SDS011;8371;52.272;9.746;2024-02-26T14:53:23;1.43;;;1.43;;
16516;SDS011;8371;52.272;9.746;2024-02-26T14:55:48;1.20;;;1.20;;
16516;SDS011;8371;52.272;9.746;2024-02-26T14:58:15;1.40;;;1.40;;
16516;SDS011;8371;52.272;9.746;2024-02-26T15:00:42;1.60;;;1.60;;
16516;SDS011;8371;52.272;9.746;2024-02-26T15:03:07;1.60;;;1.60;;
16516;SDS011;8371;52.272;9.746;2024-02-26T15:05:33;3.20;;;1.40;;